Molina, Colorado
Current Conditions -  °F | °C
As of 4:53 AM on Friday 19 Dec 2014 (Local Time) from KGJT Reporting Station
Overcast Overcast  
Wind Chill: 26°   Ceiling: 5000
Heat Index: 31°   Visibility: 10mi
Dew Point: 28°   Wind: 5mph
Humidity: 89%   Direction: 80°E
Pressure: 30.2"   Gusts: NA
Location:  39.19°N, 108.06°W
Report Text: KGJT 191153Z AUTO 08004KT 10SM OVC050 M01/M02 A3020 RMK AO2 SLP238 70003 T10061022 10000 21011 51005
Loading
Personal Weather Stations






























Interactive Weather Map New forecast layout! Learn more

10-Day Weather Forecast

Advertisements
Track Severe Weather on mobile